Time;durP1;ratioP1;P1;durP2;ratioP2;P2;SDS_P1;SDS_P2;PMS_P1;PMS_P2;Temp;Humidity;BMP_temperature;BMP_pressure;BME280_temperature;BME280_humidity;BME280_pressure;Samples;Min_cycle;Max_cycle;Signal;HPM_P1;HPM_P2
2023/02/18 00:04:48;;;;;;;4.70;3.80;;;;;;;9.31;85.29;98493.77;221687;1270;22527;-76
2023/02/18 00:09:53;;;;;;;4.30;3.00;;;;;;;9.39;84.87;98487.48;221451;1276;24267;-76
2023/02/18 00:15:00;;;;;;;3.70;2.50;;;;;;;9.51;84.82;98492.22;221706;1276;22557;-76
2023/02/18 00:20:14;;;;;;;3.40;2.20;;;;;;;9.62;84.85;98495.89;221678;1276;24225;-75
2023/02/18 00:25:16;;;;;;;2.70;1.90;;;;;;;9.74;84.30;98501.13;221817;1274;23055;-76
2023/02/18 00:30:18;;;;;;;2.40;1.70;;;;;;;9.84;83.90;98518.02;221678;1261;22642;-76
2023/02/18 00:35:21;;;;;;;3.10;1.90;;;;;;;9.95;83.59;98550.05;221618;1276;23781;-76
2023/02/18 00:40:23;;;;;;;3.80;2.40;;;;;;;10.04;82.94;98585.23;221561;1276;22683;-76
2023/02/18 00:45:26;;;;;;;2.50;2.30;;;;;;;9.94;83.15;98593.49;221672;1271;22533;-76
2023/02/18 00:50:29;;;;;;;2.60;2.20;;;;;;;9.71;83.89;98612.86;221532;1273;24242;-76
2023/02/18 00:55:31;;;;;;;3.20;2.30;;;;;;;9.47;84.53;98607.35;221695;1271;25416;-76
2023/02/18 01:00:34;;;;;;;3.10;2.20;;;;;;;9.25;84.79;98611.58;221543;1275;22526;-76
2023/02/18 01:05:39;;;;;;;2.40;2.10;;;;;;;9.10;84.63;98623.36;221778;1276;22575;-77
2023/02/18 01:10:45;;;;;;;2.90;2.10;;;;;;;9.05;84.65;98628.04;221743;1271;24302;-79
2023/02/18 01:15:47;;;;;;;3.10;1.90;;;;;;;9.04;84.43;98620.82;221575;1276;22540;-77
2023/02/18 01:20:50;;;;;;;2.00;1.60;;;;;;;9.02;83.95;98617.83;221511;1276;22673;-76
2023/02/18 01:25:52;;;;;;;2.10;1.90;;;;;;;9.03;83.86;98624.94;221497;1276;22530;-76
2023/02/18 01:30:55;;;;;;;3.30;1.90;;;;;;;9.07;83.15;98618.97;221502;1276;22538;-75
2023/02/18 01:35:59;;;;;;;1.90;1.20;;;;;;;9.11;82.21;98618.20;221669;1261;22576;-75
2023/02/18 01:41:01;;;;;;;1.90;1.40;;;;;;;9.10;81.52;98617.63;221462;1276;22529;-75
2023/02/18 01:46:06;;;;;;;2.40;1.00;;;;;;;9.04;81.01;98628.02;221714;1274;22680;-75
2023/02/18 01:51:15;;;;;;;1.80;1.30;;;;;;;8.94;79.83;98629.13;221603;1276;24343;-75
2023/02/18 01:56:26;;;;;;;1.70;1.00;;;;;;;8.83;80.22;98631.66;221685;1273;22609;-75
2023/02/18 02:01:31;;;;;;;1.90;0.90;;;;;;;8.71;80.26;98634.02;221688;1276;25358;-75
2023/02/18 02:06:33;;;;;;;3.10;1.30;;;;;;;8.55;80.13;98629.52;221758;1275;24338;-76
2023/02/18 02:12:06;;;;;;;1.80;1.10;;;;;;;8.39;80.47;98620.72;221715;1276;25337;-76
2023/02/18 02:17:46;;;;;;;1.90;1.00;;;;;;;8.21;80.09;98615.41;221698;1262;25425;-75
2023/02/18 02:23:09;;;;;;;2.50;1.20;;;;;;;8.04;80.64;98612.88;221723;1273;22529;-75
2023/02/18 02:28:14;;;;;;;2.30;1.20;;;;;;;7.88;80.58;98617.10;221688;1276;23093;-75
2023/02/18 02:33:45;;;;;;;2.90;1.40;;;;;;;7.76;81.61;98622.70;221777;1276;22530;-76
2023/02/18 02:38:59;;;;;;;3.80;1.30;;;;;;;7.63;81.61;98629.98;221598;1276;22540;-76
2023/02/18 02:44:19;;;;;;;2.20;1.40;;;;;;;7.50;82.26;98631.63;221637;1274;22590;-75
2023/02/18 02:49:36;;;;;;;1.90;1.30;;;;;;;7.40;82.57;98635.00;221616;1272;22599;-74
2023/02/18 02:54:38;;;;;;;2.30;1.70;;;;;;;7.33;83.13;98636.10;221576;1276;22533;-76
2023/02/18 02:59:45;;;;;;;2.10;1.60;;;;;;;7.28;83.85;98646.48;221564;1276;22659;-76
2023/02/18 03:05:07;;;;;;;3.10;2.10;;;;;;;7.25;84.04;98643.77;221679;1275;22532;-77
2023/02/18 03:10:42;;;;;;;3.40;2.10;;;;;;;7.20;83.92;98652.64;221855;1273;22548;-76
2023/02/18 03:16:22;;;;;;;3.30;2.30;;;;;;;7.15;84.47;98653.96;222024;1276;22548;-76
2023/02/18 03:21:30;;;;;;;3.50;2.20;;;;;;;7.11;84.65;98656.40;221503;1276;26493;-75
2023/02/18 03:26:40;;;;;;;2.40;2.00;;;;;;;7.08;84.92;98666.32;221725;1272;22547;-75
2023/02/18 03:31:46;;;;;;;1.90;1.40;;;;;;;7.08;84.41;98667.14;221676;1276;22544;-77
2023/02/18 03:36:50;;;;;;;1.50;1.10;;;;;;;7.11;84.03;98675.21;221858;1273;22941;-76
2023/02/18 03:41:52;;;;;;;1.80;1.20;;;;;;;7.18;82.94;98685.72;221535;1274;22595;-77
2023/02/18 03:46:54;;;;;;;1.50;1.30;;;;;;;7.22;81.52;98678.20;221611;1271;25245;-76
2023/02/18 03:51:57;;;;;;;1.90;1.00;;;;;;;7.28;80.43;98675.84;221644;1274;25506;-76
2023/02/18 03:57:00;;;;;;;2.40;1.10;;;;;;;7.30;79.23;98678.52;221709;1276;22475;-77
2023/02/18 04:02:03;;;;;;;1.10;0.70;;;;;;;7.32;77.64;98692.18;221378;1276;23995;-77
2023/02/18 04:07:05;;;;;;;1.00;0.70;;;;;;;7.36;75.19;98688.16;221524;1275;22545;-77
2023/02/18 04:12:07;;;;;;;2.00;0.90;;;;;;;7.35;75.60;98697.07;221544;1276;24264;-77
2023/02/18 04:17:10;;;;;;;2.10;0.80;;;;;;;7.26;75.53;98709.98;221704;1265;22551;-77
2023/02/18 04:22:12;;;;;;;2.30;1.10;;;;;;;7.13;75.37;98721.83;221523;1276;22544;-77
2023/02/18 04:27:14;;;;;;;2.20;0.80;;;;;;;6.98;75.43;98719.69;221592;1275;22578;-77
2023/02/18 04:32:16;;;;;;;1.60;1.20;;;;;;;6.85;75.14;98711.86;221620;1276;25263;-77
2023/02/18 04:37:18;;;;;;;1.30;0.70;;;;;;;6.75;74.05;98711.58;221610;1274;22545;-78
2023/02/18 04:42:23;;;;;;;1.70;0.50;;;;;;;6.72;73.43;98715.02;221683;1272;25485;-76
2023/02/18 04:47:26;;;;;;;1.20;0.60;;;;;;;6.74;71.74;98725.52;221627;1273;22542;-75
2023/02/18 04:52:28;;;;;;;1.50;0.60;;;;;;;6.76;70.36;98730.70;221735;1274;22551;-76
2023/02/18 04:57:30;;;;;;;1.40;0.80;;;;;;;6.74;70.29;98734.94;221619;1274;23312;-76
2023/02/18 05:02:35;;;;;;;3.90;0.70;;;;;;;6.68;70.49;98736.77;221583;1275;22548;-76
2023/02/18 05:07:37;;;;;;;1.20;0.60;;;;;;;6.59;71.13;98737.08;221557;1274;22533;-75
2023/02/18 05:12:39;;;;;;;1.80;0.60;;;;;;;6.49;70.86;98745.33;221631;1276;25323;-77
2023/02/18 05:17:42;;;;;;;1.00;0.40;;;;;;;6.41;70.61;98752.50;221621;1277;22648;-76
2023/02/18 05:22:44;;;;;;;1.30;0.50;;;;;;;6.38;70.52;98747.39;221693;1273;25379;-77
2023/02/18 05:27:46;;;;;;;0.40;0.30;;;;;;;6.38;70.51;98745.33;221545;1275;22556;-76
2023/02/18 05:32:48;;;;;;;1.30;0.40;;;;;;;6.39;69.99;98748.89;221724;1273;22598;-77
2023/02/18 05:37:50;;;;;;;0.80;0.50;;;;;;;6.40;70.18;98747.86;221605;1277;24232;-76
2023/02/18 05:42:52;;;;;;;1.40;0.90;;;;;;;6.40;69.71;98752.63;221632;1274;24406;-76
2023/02/18 05:47:54;;;;;;;0.80;0.30;;;;;;;6.43;69.20;98761.69;221694;1274;23267;-76
2023/02/18 05:52:57;;;;;;;1.90;1.10;;;;;;;6.48;68.95;98764.89;221691;1277;22523;-76
2023/02/18 05:57:59;;;;;;;1.50;0.60;;;;;;;6.56;68.55;98765.38;221761;1274;22655;-76
2023/02/18 06:03:01;;;;;;;1.60;0.90;;;;;;;6.67;68.23;98763.00;221749;1271;22995;-76
2023/02/18 06:08:03;;;;;;;1.30;0.40;;;;;;;6.77;68.21;98762.67;221751;1274;22532;-76
2023/02/18 06:13:05;;;;;;;1.50;0.50;;;;;;;6.86;67.64;98767.85;221697;1271;22540;-76
2023/02/18 06:18:07;;;;;;;1.00;0.50;;;;;;;6.95;67.33;98763.86;221687;1272;22632;-76
2023/02/18 06:23:10;;;;;;;1.40;0.30;;;;;;;7.02;67.89;98772.40;221697;1272;22555;-76
2023/02/18 06:28:12;;;;;;;0.90;0.40;;;;;;;7.10;67.28;98772.41;221650;1271;25252;-75
2023/02/18 06:33:14;;;;;;;1.20;0.60;;;;;;;7.20;67.10;98769.70;221557;1272;22593;-77
2023/02/18 06:38:17;;;;;;;2.20;0.50;;;;;;;7.29;66.55;98772.51;221688;1276;22582;-76
2023/02/18 06:43:19;;;;;;;1.50;0.60;;;;;;;7.41;66.03;98769.10;221571;1274;22533;-76
2023/02/18 06:48:22;;;;;;;1.40;0.70;;;;;;;7.53;64.79;98773.93;221752;1274;22541;-76
2023/02/18 06:53:24;;;;;;;1.10;0.60;;;;;;;7.63;63.86;98779.29;221741;1274;25394;-75
2023/02/18 06:58:26;;;;;;;1.80;0.50;;;;;;;7.69;63.58;98781.12;221691;1277;22628;-76
2023/02/18 07:03:28;;;;;;;2.30;1.40;;;;;;;7.71;64.08;98787.15;221726;1277;23171;-76
2023/02/18 07:08:34;;;;;;;2.30;0.80;;;;;;;7.72;65.01;98791.48;221748;1277;22600;-76
2023/02/18 07:13:37;;;;;;;2.80;0.60;;;;;;;7.73;64.70;98795.05;221791;1272;25425;-76
2023/02/18 07:18:39;;;;;;;2.10;0.80;;;;;;;7.79;64.84;98792.09;221751;1274;22589;-76
2023/02/18 07:23:41;;;;;;;1.80;0.60;;;;;;;7.86;64.10;98791.10;221417;1276;24225;-76
2023/02/18 07:28:43;;;;;;;2.20;0.60;;;;;;;7.92;64.50;98793.11;221790;1273;22712;-76
2023/02/18 07:33:45;;;;;;;1.60;0.70;;;;;;;7.95;63.50;98797.55;222060;1259;24260;-76
2023/02/18 07:38:47;;;;;;;1.80;0.70;;;;;;;7.96;63.67;98796.73;221918;1261;25376;-76
2023/02/18 07:43:50;;;;;;;3.30;0.80;;;;;;;7.97;64.50;98792.75;221860;1276;22495;-76
2023/02/18 07:48:51;;;;;;;1.10;0.60;;;;;;;7.99;63.49;98800.37;221952;1270;25210;-76
2023/02/18 07:53:54;;;;;;;2.40;1.00;;;;;;;8.00;63.87;98801.52;222060;1253;23820;-76
2023/02/18 07:58:56;;;;;;;1.20;0.70;;;;;;;8.01;64.05;98799.52;221849;1274;22541;-76
2023/02/18 08:03:59;;;;;;;2.40;0.80;;;;;;;8.01;64.16;98804.17;222083;1257;25292;-77
2023/02/18 08:09:02;;;;;;;1.40;0.70;;;;;;;8.02;64.50;98799.55;222072;1268;25277;-77
2023/02/18 08:14:05;;;;;;;3.10;0.90;;;;;;;8.02;64.80;98797.91;222185;1259;25301;-77
2023/02/18 08:19:07;;;;;;;2.80;0.80;;;;;;;8.04;64.57;98801.38;222351;1263;22567;-77
2023/02/18 08:24:09;;;;;;;2.30;0.90;;;;;;;8.05;64.20;98797.01;222117;1267;22540;-76
2023/02/18 08:29:11;;;;;;;2.60;1.00;;;;;;;8.08;64.50;98799.37;222269;1272;22533;-77
2023/02/18 08:34:13;;;;;;;2.30;1.00;;;;;;;8.09;64.68;98791.83;222011;1274;23381;-77
2023/02/18 08:39:15;;;;;;;2.60;1.00;;;;;;;8.12;64.56;98803.27;222182;1263;22529;-77
2023/02/18 08:44:17;;;;;;;3.60;1.30;;;;;;;8.17;65.22;98793.27;222086;1277;22555;-77
2023/02/18 08:49:19;;;;;;;3.10;0.90;;;;;;;8.22;65.19;98789.95;221934;1263;22724;-77
2023/02/18 08:54:22;;;;;;;3.20;1.10;;;;;;;8.26;65.56;98797.71;221941;1274;24909;-77
2023/02/18 08:59:24;;;;;;;5.50;2.00;;;;;;;8.33;65.46;98794.46;222174;1275;22746;-77
2023/02/18 09:04:26;;;;;;;3.60;1.30;;;;;;;8.39;65.85;98796.90;222130;1275;23724;-78
2023/02/18 09:09:28;;;;;;;5.30;2.00;;;;;;;8.45;66.10;98790.98;222415;1275;25429;-75
2023/02/18 09:14:30;;;;;;;2.30;1.00;;;;;;;8.50;66.12;98797.83;221999;1275;22666;-75
2023/02/18 09:19:32;;;;;;;4.30;1.30;;;;;;;8.52;65.76;98796.39;222002;1275;22728;-75
2023/02/18 09:24:39;;;;;;;5.70;1.70;;;;;;;8.56;66.67;98796.45;222228;1270;22523;-76
2023/02/18 09:29:41;;;;;;;6.00;3.00;;;;;;;8.60;66.56;98806.25;222071;1259;22645;-75
2023/02/18 09:34:44;;;;;;;4.80;1.90;;;;;;;8.65;66.92;98803.28;222099;1270;22565;-80
2023/02/18 09:39:47;;;;;;;2.20;1.70;;;;;;;8.67;66.99;98791.33;222145;1275;22554;-76
2023/02/18 09:44:56;;;;;;;4.60;1.60;;;;;;;8.67;67.43;98784.77;222219;1265;24888;-76
2023/02/18 09:50:06;;;;;;;1.70;0.90;;;;;;;8.70;66.01;98776.00;221968;1265;22541;-76
2023/02/18 09:55:39;;;;;;;2.40;0.90;;;;;;;8.68;64.12;98784.34;222115;1272;22530;-76
2023/02/18 10:00:47;;;;;;;3.00;0.70;;;;;;;8.62;63.23;98786.61;221947;1265;22542;-76
2023/02/18 10:05:56;;;;;;;2.10;1.10;;;;;;;8.56;62.71;98785.74;221893;1273;22533;-76
2023/02/18 10:10:58;;;;;;;3.40;1.20;;;;;;;8.43;62.44;98803.16;222141;1273;22492;-76
2023/02/18 10:16:02;;;;;;;3.20;1.40;;;;;;;8.25;63.80;98788.56;221823;1263;23761;-75
2023/02/18 10:21:13;;;;;;;3.70;1.10;;;;;;;8.15;65.11;98793.88;221979;1272;22562;-75
2023/02/18 10:26:16;;;;;;;;;;;;;;;8.04;65.99;98792.98;221818;1271;22536;-75
2023/02/18 10:32:05;;;;;;;3.80;1.40;;;;;;;7.86;67.14;98786.70;222083;1263;24205;-75
2023/02/18 10:37:20;;;;;;;5.10;1.50;;;;;;;7.65;68.34;98788.22;222198;1257;25480;-76
2023/02/18 10:43:04;;;;;;;3.30;1.30;;;;;;;7.51;69.00;98789.22;222066;1269;22596;-75
2023/02/18 10:48:33;;;;;;;4.20;1.20;;;;;;;7.36;70.43;98784.19;220927;1278;22547;-75
2023/02/18 10:53:39;;;;;;;3.30;1.40;;;;;;;7.20;71.00;98773.38;222263;1263;24758;-74
2023/02/18 10:58:46;;;;;;;3.50;1.00;;;;;;;7.05;72.00;98774.71;221910;1259;22738;-74
2023/02/18 11:03:51;;;;;;;1.50;0.70;;;;;;;6.91;72.51;98771.30;221968;1270;22529;-75
2023/02/18 11:08:56;;;;;;;1.80;0.90;;;;;;;6.78;73.16;98756.63;221950;1274;25223;-74
2023/02/18 11:14:01;;;;;;;2.30;0.80;;;;;;;6.66;73.94;98739.11;221848;1259;197429;-74
2023/02/18 11:19:25;;;;;;;2.80;1.10;;;;;;;6.61;74.45;98726.92;222196;1260;25257;-73
2023/02/18 11:24:27;;;;;;;4.80;2.80;;;;;;;6.56;75.13;98720.82;222004;1269;26389;-73
2023/02/18 11:29:39;;;;;;;3.80;1.40;;;;;;;6.52;75.52;98701.68;221915;1274;22539;-74
2023/02/18 11:34:44;;;;;;;3.80;1.40;;;;;;;6.48;75.86;98679.53;222113;1263;25359;-75
2023/02/18 11:39:50;;;;;;;3.70;1.60;;;;;;;6.42;76.51;98660.38;222195;1270;22522;-75
2023/02/18 11:44:59;;;;;;;5.70;2.00;;;;;;;6.36;76.39;98646.11;222107;1275;22567;-78
2023/02/18 11:50:10;;;;;;;4.00;1.80;;;;;;;6.36;76.39;98644.40;221969;1269;22747;-76
2023/02/18 11:55:56;;;;;;;4.00;1.90;;;;;;;6.38;76.94;98641.06;222265;1265;22888;-75
2023/02/18 12:01:01;;;;;;;6.40;3.20;;;;;;;6.45;77.57;98628.61;221994;1272;22570;-76
2023/02/18 12:06:14;;;;;;;4.90;2.70;;;;;;;6.57;77.63;98616.80;221654;1276;22550;-75
2023/02/18 12:11:32;;;;;;;6.40;2.50;;;;;;;6.66;77.84;98604.90;221686;1276;22548;-75
2023/02/18 12:16:50;;;;;;;3.50;2.50;;;;;;;6.72;77.94;98588.98;221551;1276;22520;-74
2023/02/18 12:22:08;;;;;;;4.00;2.30;;;;;;;6.84;78.08;98576.55;221674;1276;22574;-74
2023/02/18 12:27:35;;;;;;;4.60;2.40;;;;;;;6.89;77.98;98564.27;221635;1259;25799;-73
2023/02/18 12:33:03;;;;;;;7.60;4.70;;;;;;;6.90;78.34;98544.50;221688;1273;22548;-74
2023/02/18 12:38:17;;;;;;;10.50;6.60;;;;;;;7.00;79.33;98525.80;221761;1276;25223;-75
2023/02/18 12:43:55;;;;;;;12.00;7.70;;;;;;;7.07;79.07;98510.84;221676;1275;22536;-74
2023/02/18 12:49:54;;;;;;;;;;;;;;;;;;;;;
2023/02/18 12:55:38;;;;;;;15.40;9.60;;;;;;;7.22;79.36;98475.62;221567;1276;22547;-75
2023/02/18 13:01:41;;;;;;;13.60;9.00;;;;;;;7.20;79.11;98483.91;220950;1281;26504;-74
2023/02/18 13:06:51;;;;;;;11.90;7.20;;;;;;;7.01;78.96;98451.54;220353;1280;25351;-74
2023/02/18 13:12:23;;;;;;;9.40;6.20;;;;;;;7.02;79.46;98441.02;221019;1281;24129;-75
2023/02/18 13:17:32;;;;;;;13.50;7.20;;;;;;;7.00;79.02;98435.66;220988;1279;22661;-74
2023/02/18 13:22:35;;;;;;;11.50;7.10;;;;;;;6.97;79.58;98410.16;221220;1281;22552;-74
2023/02/18 13:27:52;;;;;;;15.90;9.70;;;;;;;6.97;80.02;98397.80;221035;1279;24365;-75
2023/02/18 13:33:45;;;;;;;16.40;10.50;;;;;;;6.96;79.99;98391.38;221669;1276;26519;-74
2023/02/18 13:39:02;;;;;;;20.50;11.50;;;;;;;6.93;79.93;98366.52;221708;1277;22724;-74
2023/02/18 13:45:09;;;;;;;23.20;12.40;;;;;;;6.95;80.35;98367.52;221502;1278;24234;-74
2023/02/18 13:50:43;;;;;;;22.40;13.10;;;;;;;6.97;80.55;98354.79;221071;1277;22545;-74
2023/02/18 13:55:52;;;;;;;18.40;12.10;;;;;;;7.04;80.59;98341.20;221567;1277;22524;-73
2023/02/18 14:01:00;;;;;;;17.60;11.40;;;;;;;7.06;80.60;98335.28;221650;1276;22537;-74
2023/02/18 14:06:20;;;;;;;17.90;11.00;;;;;;;7.07;80.96;98329.63;221544;1277;22544;-74
2023/02/18 14:11:31;;;;;;;18.10;11.70;;;;;;;7.05;80.60;98314.15;221605;1277;22542;-74
2023/02/18 14:17:28;;;;;;;19.30;12.90;;;;;;;7.05;80.75;98297.23;221447;1276;24294;-74
2023/02/18 14:22:43;;;;;;;24.60;15.50;;;;;;;7.05;81.01;98274.88;221676;1276;25099;-74
2023/02/18 14:27:46;;;;;;;32.80;19.20;;;;;;;7.07;81.04;98260.48;221672;1276;22544;-74
2023/02/18 14:32:51;;;;;;;28.10;17.20;;;;;;;7.12;81.43;98242.73;221545;1276;22552;-74
2023/02/18 14:38:08;;;;;;;26.00;15.60;;;;;;;7.18;81.53;98229.45;221623;1276;22739;-74
2023/02/18 14:43:27;;;;;;;23.90;14.90;;;;;;;7.20;81.75;98212.34;221694;1274;22690;-74
2023/02/18 14:48:49;;;;;;;22.80;14.90;;;;;;;7.22;81.84;98205.50;221674;1277;23743;-75
2023/02/18 14:53:52;;;;;;;28.40;18.10;;;;;;;7.20;82.19;98184.30;221641;1277;22584;-74
2023/02/18 14:59:11;;;;;;;32.70;21.50;;;;;;;7.20;82.50;98169.79;221651;1276;25322;-75
2023/02/18 15:04:14;;;;;;;39.80;24.90;;;;;;;7.19;82.40;98157.48;221639;1277;26350;-74
2023/02/18 15:09:21;;;;;;;36.90;24.90;;;;;;;7.08;82.33;98155.13;221703;1270;26377;-74
2023/02/18 15:14:29;;;;;;;44.30;27.60;;;;;;;6.95;82.84;98148.83;221536;1276;24212;-75
2023/02/18 15:19:39;;;;;;;44.60;29.70;;;;;;;6.84;83.23;98135.59;221732;1277;22470;-74
2023/02/18 15:24:43;;;;;;;50.20;31.50;;;;;;;6.81;83.83;98125.41;221623;1274;25249;-75
2023/02/18 15:29:58;;;;;;;42.10;29.10;;;;;;;6.84;84.53;98112.52;221599;1276;22636;-74
2023/02/18 15:35:16;;;;;;;33.70;23.10;;;;;;;6.91;84.99;98097.80;221566;1277;25504;-74
2023/02/18 15:40:21;;;;;;;29.70;20.40;;;;;;;7.02;86.05;98083.02;221501;1276;25468;-74
2023/02/18 15:45:40;;;;;;;26.90;20.60;;;;;;;7.20;87.16;98076.67;221578;1277;25249;-74
2023/02/18 15:50:53;;;;;;;24.60;18.60;;;;;;;7.40;88.07;98077.38;221834;1276;22544;-75
2023/02/18 15:55:58;;;;;;;26.20;18.90;;;;;;;7.59;88.26;98073.83;221508;1276;22536;-75
2023/02/18 16:01:03;;;;;;;20.00;14.90;;;;;;;7.71;88.27;98064.58;221629;1276;24324;-74
2023/02/18 16:06:21;;;;;;;16.00;12.30;;;;;;;7.85;88.41;98062.00;221706;1276;22537;-75
2023/02/18 16:11:27;;;;;;;12.10;8.90;;;;;;;7.99;88.43;98053.27;221744;1276;24248;-75
2023/02/18 16:16:34;;;;;;;13.40;8.80;;;;;;;8.13;88.93;98049.77;221666;1274;22548;-75
2023/02/18 16:21:44;;;;;;;11.00;8.90;;;;;;;8.24;88.44;98058.08;221602;1276;25285;-74
2023/02/18 16:26:50;;;;;;;12.80;9.10;;;;;;;8.30;88.27;98055.39;221636;1276;23746;-73
2023/02/18 16:32:19;;;;;;;12.50;8.50;;;;;;;8.36;88.55;98066.38;221569;1276;25297;-74
2023/02/18 16:37:39;;;;;;;14.30;10.00;;;;;;;8.45;88.29;98075.27;221709;1277;22654;-74
2023/02/18 16:42:47;;;;;;;16.10;10.20;;;;;;;8.50;88.15;98080.38;221493;1276;22549;-74
2023/02/18 16:47:49;;;;;;;11.80;8.30;;;;;;;8.57;88.28;98090.10;221423;1267;22605;-74
2023/02/18 16:52:52;;;;;;;9.40;6.70;;;;;;;8.62;88.15;98086.61;221595;1277;25431;-74
2023/02/18 16:57:56;;;;;;;8.30;6.50;;;;;;;8.70;88.77;98091.08;221583;1276;22534;-74
2023/02/18 17:03:00;;;;;;;6.00;5.30;;;;;;;8.75;88.10;98103.44;221765;1273;22532;-74
2023/02/18 17:08:26;;;;;;;5.40;4.00;;;;;;;8.79;88.28;98108.39;221579;1273;23338;-74
2023/02/18 17:13:29;;;;;;;5.00;4.00;;;;;;;8.83;87.64;98110.16;221668;1273;25495;-76
2023/02/18 17:18:37;;;;;;;5.30;3.30;;;;;;;8.88;87.16;98116.98;221619;1276;24193;-73
2023/02/18 17:23:51;;;;;;;4.30;3.10;;;;;;;8.90;86.81;98126.39;221588;1276;22556;-74
2023/02/18 17:28:58;;;;;;;5.80;3.80;;;;;;;8.88;86.70;98114.63;221735;1262;22646;-75
2023/02/18 17:34:05;;;;;;;3.90;3.40;;;;;;;8.83;86.21;98115.60;221742;1277;23726;-74
2023/02/18 17:39:13;;;;;;;5.20;3.80;;;;;;;8.77;85.70;98111.86;221545;1276;24825;-74
2023/02/18 17:44:20;;;;;;;4.80;3.70;;;;;;;8.77;85.53;98130.70;221537;1276;22630;-75
2023/02/18 17:49:22;;;;;;;5.00;3.70;;;;;;;8.80;85.61;98139.64;221518;1276;22571;-74
2023/02/18 17:54:24;;;;;;;5.30;4.30;;;;;;;8.84;84.80;98144.95;221548;1276;24349;-73
2023/02/18 17:59:29;;;;;;;5.70;3.70;;;;;;;8.88;85.02;98158.27;221826;1275;22536;-74
2023/02/18 18:04:31;;;;;;;5.90;4.10;;;;;;;8.88;84.54;98152.11;221617;1276;23275;-75
2023/02/18 18:09:34;;;;;;;4.80;3.80;;;;;;;8.88;84.30;98164.67;221697;1277;22576;-75
2023/02/18 18:14:36;;;;;;;4.10;3.30;;;;;;;8.89;84.05;98172.14;221664;1271;26483;-73
2023/02/18 18:19:42;;;;;;;3.00;2.30;;;;;;;8.88;83.53;98161.15;221642;1274;25373;-74
2023/02/18 18:24:44;;;;;;;3.00;2.40;;;;;;;8.92;83.07;98173.73;221501;1273;22641;-74
2023/02/18 18:29:47;;;;;;;2.80;2.20;;;;;;;8.96;82.80;98180.98;221642;1273;22593;-74
2023/02/18 18:34:50;;;;;;;3.00;1.80;;;;;;;9.02;82.57;98182.27;221643;1276;22540;-75
2023/02/18 18:39:51;;;;;;;2.20;1.70;;;;;;;9.02;82.07;98180.45;221664;1272;23285;-76
2023/02/18 18:44:55;;;;;;;2.50;1.80;;;;;;;9.03;81.44;98178.73;221594;1277;22550;-75
2023/02/18 18:49:57;;;;;;;3.50;2.20;;;;;;;9.04;81.35;98197.54;221632;1271;23796;-76
2023/02/18 18:54:59;;;;;;;3.20;2.00;;;;;;;9.06;81.32;98210.66;221616;1276;25371;-74
2023/02/18 19:00:01;;;;;;;3.10;2.10;;;;;;;9.07;80.85;98219.51;221644;1276;22634;-74
2023/02/18 19:05:05;;;;;;;4.40;2.20;;;;;;;9.08;80.76;98214.77;221474;1272;25285;-74
2023/02/18 19:10:07;;;;;;;2.30;1.90;;;;;;;9.11;80.59;98221.81;221720;1270;25447;-74
2023/02/18 19:15:20;;;;;;;4.60;1.90;;;;;;;9.11;80.36;98227.94;221647;1265;22612;-73
2023/02/18 19:20:25;;;;;;;2.30;1.60;;;;;;;9.12;80.29;98235.93;221694;1276;22576;-75
2023/02/18 19:25:27;;;;;;;2.40;1.80;;;;;;;9.14;80.43;98240.94;221650;1276;22874;-74
2023/02/18 19:30:33;;;;;;;2.60;1.70;;;;;;;9.15;79.89;98242.09;221532;1276;22632;-74
2023/02/18 19:35:38;;;;;;;1.70;1.30;;;;;;;9.15;80.08;98244.52;221722;1271;25246;-75
2023/02/18 19:40:42;;;;;;;2.60;1.40;;;;;;;9.15;79.68;98254.57;221523;1276;22560;-74
2023/02/18 19:45:46;;;;;;;2.40;1.40;;;;;;;9.15;79.63;98246.05;221621;1276;22588;-75
2023/02/18 19:50:48;;;;;;;2.60;1.40;;;;;;;9.15;80.12;98254.45;221394;1273;22599;-73
2023/02/18 19:56:01;;;;;;;1.60;1.30;;;;;;;9.16;80.02;98257.74;221695;1275;24122;-75
2023/02/18 20:01:10;;;;;;;2.70;1.40;;;;;;;9.18;79.27;98263.80;221543;1276;22553;-75
2023/02/18 20:06:20;;;;;;;1.60;1.20;;;;;;;9.20;79.58;98265.88;221717;1276;24285;-74
2023/02/18 20:11:23;;;;;;;1.20;1.10;;;;;;;9.20;79.36;98273.86;221772;1275;22718;-74
2023/02/18 20:16:25;;;;;;;2.60;1.20;;;;;;;9.22;79.30;98279.49;221712;1271;25567;-75
2023/02/18 20:21:27;;;;;;;1.40;1.10;;;;;;;9.23;78.85;98279.52;221420;1276;22534;-74
2023/02/18 20:26:29;;;;;;;1.20;1.10;;;;;;;9.26;79.04;98283.26;221726;1274;22596;-74
2023/02/18 20:31:32;;;;;;;1.70;1.60;;;;;;;9.28;78.96;98295.85;221632;1274;22534;-75
2023/02/18 20:36:34;;;;;;;1.30;1.10;;;;;;;9.28;78.92;98301.02;221537;1275;22552;-75
2023/02/18 20:41:38;;;;;;;2.60;1.40;;;;;;;9.29;78.99;98315.11;221590;1276;23785;-76
2023/02/18 20:46:41;;;;;;;2.20;1.70;;;;;;;9.31;78.24;98319.01;221798;1275;24341;-74
2023/02/18 20:51:43;;;;;;;1.80;1.40;;;;;;;9.31;78.65;98334.54;221493;1276;22590;-75
2023/02/18 20:56:48;;;;;;;1.80;1.20;;;;;;;9.30;78.65;98350.88;221510;1276;22488;-75
2023/02/18 21:01:50;;;;;;;2.40;1.60;;;;;;;9.21;79.38;98367.25;221730;1275;24232;-76
2023/02/18 21:06:54;;;;;;;2.20;1.60;;;;;;;9.06;79.71;98377.77;221695;1274;25490;-75
2023/02/18 21:11:56;;;;;;;3.80;1.30;;;;;;;8.85;81.26;98404.36;221680;1274;24276;-73
2023/02/18 21:17:02;;;;;;;1.00;0.90;;;;;;;8.50;82.63;98416.73;221719;1276;22734;-72
2023/02/18 21:22:05;;;;;;;1.40;0.90;;;;;;;8.02;83.90;98427.89;221742;1276;24277;-71
2023/02/18 21:27:07;;;;;;;2.50;1.40;;;;;;;7.65;84.98;98440.86;221824;1273;22539;-74
2023/02/18 21:32:11;;;;;;;0.70;0.70;;;;;;;7.37;85.78;98437.77;221702;1271;22488;-72
2023/02/18 21:37:14;;;;;;;2.20;0.80;;;;;;;7.16;86.38;98439.08;221779;1271;24224;-73
2023/02/18 21:42:16;;;;;;;0.80;0.80;;;;;;;7.02;86.93;98453.70;221742;1276;22540;-72
2023/02/18 21:47:29;;;;;;;0.90;0.80;;;;;;;6.91;87.62;98451.96;221789;1276;22540;-73
2023/02/18 21:52:32;;;;;;;1.10;0.80;;;;;;;6.83;88.14;98463.92;221801;1268;26361;-73
2023/02/18 21:57:38;;;;;;;2.80;1.40;;;;;;;6.75;88.22;98474.62;221742;1274;22608;-72
2023/02/18 22:02:48;;;;;;;2.70;1.70;;;;;;;6.69;88.45;98479.11;221714;1271;23925;-72
2023/02/18 22:07:51;;;;;;;1.50;1.00;;;;;;;6.66;88.41;98488.69;221765;1275;22533;-72
2023/02/18 22:12:58;;;;;;;1.60;1.00;;;;;;;6.63;88.60;98490.98;221712;1276;22482;-74
2023/02/18 22:18:01;;;;;;;1.70;1.30;;;;;;;6.57;88.71;98495.82;221803;1272;24298;-71
2023/02/18 22:23:03;;;;;;;2.40;1.40;;;;;;;6.51;88.97;98510.55;221774;1273;22652;-73
2023/02/18 22:28:05;;;;;;;1.90;1.10;;;;;;;6.47;89.11;98518.86;221865;1273;25520;-72
2023/02/18 22:33:08;;;;;;;1.70;1.30;;;;;;;6.45;88.99;98513.52;221806;1276;24121;-72
2023/02/18 22:38:10;;;;;;;1.90;1.20;;;;;;;6.41;89.33;98521.59;221567;1276;22762;-73
2023/02/18 22:43:13;;;;;;;2.10;1.60;;;;;;;6.37;89.08;98521.11;221757;1274;22533;-72
2023/02/18 22:48:16;;;;;;;1.90;1.60;;;;;;;6.35;89.10;98522.47;221813;1274;23218;-73
2023/02/18 22:53:20;;;;;;;3.00;2.00;;;;;;;6.33;89.48;98532.27;221794;1274;23931;-72
2023/02/18 22:58:27;;;;;;;3.00;1.70;;;;;;;6.31;89.31;98534.20;221752;1258;22541;-73
2023/02/18 23:03:29;;;;;;;3.50;2.10;;;;;;;6.30;89.28;98550.27;221754;1273;22465;-73
2023/02/18 23:08:32;;;;;;;2.50;2.00;;;;;;;6.28;89.27;98548.86;221859;1276;23064;-75
2023/02/18 23:13:35;;;;;;;6.60;4.70;;;;;;;6.26;89.49;98559.91;221589;1274;128527;-73
2023/02/18 23:18:38;;;;;;;3.00;1.90;;;;;;;6.24;89.71;98565.42;221800;1273;22556;-73
2023/02/18 23:23:40;;;;;;;2.60;1.90;;;;;;;6.22;89.56;98572.64;221690;1276;24236;-72
2023/02/18 23:28:59;;;;;;;;;;;;;;;;;;;;;
2023/02/18 23:34:03;;;;;;;1.60;1.50;;;;;;;6.20;89.62;98575.35;221720;1276;25433;-74
2023/02/18 23:39:18;;;;;;;1.40;1.30;;;;;;;6.17;89.57;98567.64;221629;1276;25304;-73
2023/02/18 23:44:22;;;;;;;2.00;1.60;;;;;;;6.13;89.76;98568.20;221636;1276;26219;-73
2023/02/18 23:49:25;;;;;;;2.60;1.80;;;;;;;6.11;89.62;98568.61;221798;1270;26490;-72
2023/02/18 23:54:28;;;;;;;2.80;2.20;;;;;;;6.09;89.58;98572.48;221748;1272;22486;-73
2023/02/18 23:59:56;;;;;;;111.20;75.10;;;;;;;6.08;89.50;98583.14;221672;1276;22547;-72
